sensor_id;sensor_type;location;lat;lon;timestamp;pressure;altitude;pressure_sealevel;temperature;humidity
19759;BME280;10038;42.662;23.278;2023-08-06T20:48:12;163800.09;;;19.34;79.05
19759;BME280;10038;42.662;23.278;2023-08-06T20:50:39;163793.41;;;19.32;78.35
19759;BME280;10038;42.662;23.278;2023-08-06T20:53:07;163771.94;;;19.24;78.10
19759;BME280;10038;42.662;23.278;2023-08-06T20:55:34;163774.66;;;19.25;77.86
19759;BME280;10038;42.662;23.278;2023-08-06T20:58:01;163780.00;;;19.27;78.01
19759;BME280;10038;42.662;23.278;2023-08-06T21:00:28;163769.25;;;19.23;78.44
19759;BME280;10038;42.662;23.278;2023-08-06T21:02:55;163788.06;;;19.30;78.16
19759;BME280;10038;42.662;23.278;2023-08-06T21:05:23;163792.06;;;19.31;77.72
19759;BME280;10038;42.662;23.278;2023-08-06T21:07:52;163769.25;;;19.23;77.60
19759;BME280;10038;42.662;23.278;2023-08-06T21:10:19;163769.25;;;19.23;78.14
19759;BME280;10038;42.662;23.278;2023-08-06T21:12:45;163743.78;;;19.13;78.12
19759;BME280;10038;42.662;23.278;2023-08-06T21:15:12;163751.84;;;19.16;78.28
19759;BME280;10038;42.662;23.278;2023-08-06T21:17:39;163761.25;;;19.20;78.59
19759;BME280;10038;42.662;23.278;2023-08-06T21:20:08;163703.53;;;18.98;78.78
19759;BME280;10038;42.662;23.278;2023-08-06T21:22:36;163692.81;;;18.94;78.42
19759;BME280;10038;42.662;23.278;2023-08-06T21:25:04;163671.38;;;18.86;78.31
19759;BME280;10038;42.662;23.278;2023-08-06T21:27:31;163672.72;;;18.87;79.04
19759;BME280;10038;42.662;23.278;2023-08-06T21:29:58;163688.78;;;18.93;79.08
19759;BME280;10038;42.662;23.278;2023-08-06T21:32:25;163679.41;;;18.89;78.85
19759;BME280;10038;42.662;23.278;2023-08-06T21:34:52;163672.72;;;18.87;78.80
19759;BME280;10038;42.662;23.278;2023-08-06T21:37:19;163690.13;;;18.93;78.95
19759;BME280;10038;42.662;23.278;2023-08-06T21:39:47;163694.16;;;18.95;78.76
19759;BME280;10038;42.662;23.278;2023-08-06T21:42:14;163692.81;;;18.94;78.94
19759;BME280;10038;42.662;23.278;2023-08-06T21:44:41;163680.78;;;18.90;78.92
19759;BME280;10038;42.662;23.278;2023-08-06T21:47:08;163678.06;;;18.89;78.79
19759;BME280;10038;42.662;23.278;2023-08-06T21:49:36;163647.22;;;18.77;78.52
19759;BME280;10038;42.662;23.278;2023-08-06T21:52:04;163696.81;;;18.96;78.22
19759;BME280;10038;42.662;23.278;2023-08-06T21:54:31;163706.22;;;18.99;77.77
19759;BME280;10038;42.662;23.278;2023-08-06T21:56:59;163678.06;;;18.89;77.65
19759;BME280;10038;42.662;23.278;2023-08-06T21:59:26;163720.97;;;19.05;77.60
19759;BME280;10038;42.662;23.278;2023-08-06T22:01:53;163718.28;;;19.04;77.18
19759;BME280;10038;42.662;23.278;2023-08-06T22:04:20;163731.72;;;19.09;77.39
19759;BME280;10038;42.662;23.278;2023-08-06T22:06:47;163715.63;;;19.03;77.03
19759;BME280;10038;42.662;23.278;2023-08-06T22:09:14;163688.78;;;18.93;77.27
19759;BME280;10038;42.662;23.278;2023-08-06T22:11:41;163691.47;;;18.94;77.47
19759;BME280;10038;42.662;23.278;2023-08-06T22:14:09;163723.69;;;19.06;75.96
19759;BME280;10038;42.662;23.278;2023-08-06T22:16:36;163720.97;;;19.05;75.92
19759;BME280;10038;42.662;23.278;2023-08-06T22:19:03;163718.28;;;19.04;75.96
19759;BME280;10038;42.662;23.278;2023-08-06T22:21:44;163694.16;;;18.95;77.02
19759;BME280;10038;42.662;23.278;2023-08-06T22:24:11;163691.47;;;18.94;77.37
19759;BME280;10038;42.662;23.278;2023-08-06T22:26:38;163690.13;;;18.93;76.84
19759;BME280;10038;42.662;23.278;2023-08-06T22:29:05;163688.78;;;18.93;77.29
19759;BME280;10038;42.662;23.278;2023-08-06T22:31:33;163675.38;;;18.88;77.05
19759;BME280;10038;42.662;23.278;2023-08-06T22:34:00;163678.06;;;18.89;77.58
19759;BME280;10038;42.662;23.278;2023-08-06T22:36:27;163659.31;;;18.81;78.33
19759;BME280;10038;42.662;23.278;2023-08-06T22:38:54;163616.38;;;18.65;79.02
19759;BME280;10038;42.662;23.278;2023-08-06T22:41:21;163611.03;;;18.63;79.83
19759;BME280;10038;42.662;23.278;2023-08-06T22:43:50;163586.88;;;18.54;80.28
19759;BME280;10038;42.662;23.278;2023-08-06T22:46:16;163584.22;;;18.53;80.69
19759;BME280;10038;42.662;23.278;2023-08-06T22:48:45;163560.03;;;18.44;80.12
19759;BME280;10038;42.662;23.278;2023-08-06T22:51:12;163586.88;;;18.54;79.72
19759;BME280;10038;42.662;23.278;2023-08-06T22:53:38;163404.53;;;17.86;78.06
19759;BME280;10038;42.662;23.278;2023-08-06T22:56:05;163425.97;;;17.94;78.04
19759;BME280;10038;42.662;23.278;2023-08-06T22:58:32;163607.00;;;18.62;77.54
19759;BME280;10038;42.662;23.278;2023-08-06T23:00:59;163619.06;;;18.66;77.05
19759;BME280;10038;42.662;23.278;2023-08-06T23:03:27;163586.88;;;18.54;76.84
19759;BME280;10038;42.662;23.278;2023-08-06T23:05:56;163598.97;;;18.59;77.09
19759;BME280;10038;42.662;23.278;2023-08-06T23:08:23;163568.06;;;18.47;77.84
19759;BME280;10038;42.662;23.278;2023-08-06T23:10:49;163585.56;;;18.54;78.02
19759;BME280;10038;42.662;23.278;2023-08-06T23:13:16;163584.22;;;18.53;78.05
19759;BME280;10038;42.662;23.278;2023-08-06T23:15:43;163576.16;;;18.50;77.93
19759;BME280;10038;42.662;23.278;2023-08-06T23:18:10;163547.97;;;18.40;78.42
19759;BME280;10038;42.662;23.278;2023-08-06T23:20:37;163564.06;;;18.46;78.44
19759;BME280;10038;42.662;23.278;2023-08-06T23:23:05;163549.31;;;18.40;78.00
19759;BME280;10038;42.662;23.278;2023-08-06T23:25:34;163545.28;;;18.39;77.51
19759;BME280;10038;42.662;23.278;2023-08-06T23:28:01;163554.66;;;18.42;77.72
19759;BME280;10038;42.662;23.278;2023-08-06T23:30:28;163539.94;;;18.37;78.17
19759;BME280;10038;42.662;23.278;2023-08-06T23:32:55;163529.16;;;18.33;78.03
19759;BME280;10038;42.662;23.278;2023-08-06T23:35:22;163525.19;;;18.31;77.89
19759;BME280;10038;42.662;23.278;2023-08-06T23:37:49;163519.81;;;18.29;78.07
19759;BME280;10038;42.662;23.278;2023-08-06T23:40:18;163342.91;;;17.62;77.86
19759;BME280;10038;42.662;23.278;2023-08-06T23:42:46;163513.13;;;18.26;77.72
19759;BME280;10038;42.662;23.278;2023-08-06T23:45:13;163490.34;;;18.18;77.50
19759;BME280;10038;42.662;23.278;2023-08-06T23:47:40;163509.09;;;18.25;77.37
19759;BME280;10038;42.662;23.278;2023-08-06T23:50:09;163561.38;;;18.45;77.11
19759;BME280;10038;42.662;23.278;2023-08-06T23:52:36;163578.88;;;18.51;76.30
19759;BME280;10038;42.662;23.278;2023-08-06T23:55:03;163574.81;;;18.50;77.21
19759;BME280;10038;42.662;23.278;2023-08-06T23:57:32;163572.13;;;18.49;76.44
19759;BME280;10038;42.662;23.278;2023-08-06T23:59:59;163551.97;;;18.41;76.88
